TimePST,TemperatureF,Dew PointF,Humidity,Sea Level PressureIn,VisibilityMPH,Wind Direction,Wind SpeedMPH,Gust SpeedMPH,PrecipitationIn,Events,Conditions,WindDirDegrees,DateUTC
12:51 AM,52.0,32.0,47,30.14,10.0,NNW,3.5,-,N/A,,Clear,340,2012-11-13 08:51:00
1:51 AM,52.0,30.9,45,30.12,10.0,North,3.5,-,N/A,,Clear,350,2012-11-13 09:51:00
2:51 AM,51.1,30.0,44,30.10,10.0,Calm,Calm,-,N/A,,Clear,0,2012-11-13 10:51:00
3:51 AM,51.1,28.0,41,30.09,10.0,NNW,4.6,-,N/A,,Clear,340,2012-11-13 11:51:00
4:51 AM,48.9,28.9,46,30.09,10.0,Calm,Calm,-,N/A,,Clear,0,2012-11-13 12:51:00
5:51 AM,50.0,28.0,43,30.09,10.0,Calm,Calm,-,N/A,,Partly Cloudy,0,2012-11-13 13:51:00
6:51 AM,50.0,28.0,43,30.10,10.0,North,5.8,-,N/A,,Partly Cloudy,10,2012-11-13 14:51:00
7:51 AM,57.0,27.0,32,30.11,10.0,Calm,Calm,-,N/A,,Partly Cloudy,0,2012-11-13 15:51:00
8:51 AM,61.0,27.0,27,30.10,10.0,Calm,Calm,-,N/A,,Partly Cloudy,0,2012-11-13 16:51:00
9:51 AM,68.0,27.0,21,30.09,10.0,Calm,Calm,-,N/A,,Partly Cloudy,0,2012-11-13 17:51:00
10:51 AM,71.1,35.1,27,30.08,10.0,NW,6.9,-,N/A,,Partly Cloudy,320,2012-11-13 18:51:00
11:51 AM,70.0,30.9,24,30.05,10.0,NW,9.2,-,N/A,,Partly Cloudy,320,2012-11-13 19:51:00
12:51 PM,72.0,18.0,13,30.01,10.0,NW,8.1,-,N/A,,Partly Cloudy,310,2012-11-13 20:51:00
1:51 PM,75.0,10.9,9,29.99,10.0,WNW,11.5,-,N/A,,Partly Cloudy,300,2012-11-13 21:51:00
2:51 PM,73.9,30.0,20,29.99,10.0,NNW,9.2,-,N/A,,Partly Cloudy,330,2012-11-13 22:51:00
3:51 PM,75.0,12.9,9,29.99,10.0,NW,6.9,-,N/A,,Partly Cloudy,320,2012-11-13 23:51:00
4:51 PM,64.9,48.0,54,30.01,10.0,SSE,9.2,-,N/A,,Partly Cloudy,160,2012-11-14 00:51:00
5:51 PM,62.1,53.1,72,30.03,10.0,South,6.9,-,N/A,,Clear,170,2012-11-14 01:51:00
6:51 PM,61.0,55.0,81,30.03,10.0,SSE,5.8,-,N/A,,Clear,160,2012-11-14 02:51:00
7:51 PM,61.0,55.0,81,30.04,10.0,South,3.5,-,N/A,,Clear,170,2012-11-14 03:51:00
8:51 PM,60.1,53.1,78,30.05,10.0,Calm,Calm,-,N/A,,Clear,0,2012-11-14 04:51:00
9:51 PM,57.9,50.0,75,30.05,10.0,NNE,3.5,-,N/A,,Clear,30,2012-11-14 05:51:00
10:51 PM,57.0,48.9,74,30.06,10.0,Calm,Calm,-,N/A,,Clear,0,2012-11-14 06:51:00
11:51 PM,55.9,48.9,77,30.06,10.0,Calm,Calm,-,N/A,,Partly Cloudy,0,2012-11-14 07:51:00